AIRPORT ID: 4X4

DATE: 2021-12-08 ZULU TIME: 20.55 LOCAL TIME: 14.55


METAR K4X4 082055Z AUTO 12015KT 10SM 03/M07 A2960

ALTIMETER: A2960 Q1002

DENSITY ALT: 900 Ft

WIND DIRECT: 130

WIND SPEED: 15 Gust

WIND CONDITIONS:

VISIBILTY: 10SM 9999M

TEMPERATURE: 38 F 3 C

DEW POINT: 19 F -7 C

HUMID: 47%

LCL: 3,000-5,000 feet

RADIO CHECK: 0

ADVISARIES: 0

GREETINGS: 0

CONVERSATIONS: 0